Date,TemperatureHighF,TemperatureAvgF,TemperatureLowF,DewpointHighF,DewpointAvgF,DewpointLowF,HumidityHigh,HumidityAvg,HumidityLow,PressureMaxIn,PressureMinIn,WindSpeedMaxMPH,WindSpeedAvgMPH,GustSpeedMaxMPH,PrecipitationSumIn
2013-3-1,40.6,35.4,32.0,32.3,28.2,22.3,84,75,65,29.78,29.60,9,3,17,0.00
2013-3-2,33.6,29.3,23.9,22.4,19.5,14.9,75,66,57,29.79,29.72,10,4,17,0.00
2013-3-3,30.9,25.4,21.3,18.5,14.3,11.4,69,63,55,29.78,29.69,10,4,18,0.00
2013-3-4,32.1,28.1,24.9,20.5,17.1,14.7,71,63,55,29.91,29.75,17,5,26,0.02
2013-3-5,42.4,33.0,28.0,24.8,20.7,15.1,76,61,47,30.10,29.91,8,3,15,0.00
2013-3-6,41.3,35.5,28.5,29.6,24.3,19.2,77,64,51,30.13,30.03,13,5,21,0.00
2013-3-7,38.6,34.5,30.0,29.4,23.0,17.1,86,64,44,30.17,30.10,11,3,15,0.00
2013-3-8,44.0,34.2,28.4,33.8,27.1,21.8,87,76,54,30.31,30.12,6,1,10,0.00
2013-3-9,51.9,38.1,28.5,24.8,20.6,16.4,76,52,26,30.36,30.27,6,2,10,0.00
2013-3-10,53.0,39.6,23.0,30.1,21.7,15.3,76,51,28,30.37,30.18,11,3,18,0.00
2013-3-11,49.4,43.3,36.3,40.4,33.5,28.0,77,68,59,30.23,29.97,14,5,29,0.00
2013-3-12,52.8,47.6,36.3,49.4,42.5,29.1,88,82,74,29.99,29.67,14,5,22,0.35
2013-3-13,46.2,37.4,32.0,28.9,24.5,15.1,80,62,30,29.88,29.76,15,3,21,0.00
2013-3-14,32.3,26.8,23.3,20.0,9.1,-1.0,61,47,32,29.93,29.83,12,5,23,0.00
2013-3-15,37.2,29.5,19.0,28.9,15.3,2.6,84,56,37,29.96,29.64,10,2,18,0.00
2013-3-16,35.0,29.2,21.3,22.1,11.6,4.6,69,48,28,29.93,29.76,6,2,12,0.00
2013-3-17,35.7,27.4,18.3,11.2,3.6,-4.0,57,38,21,30.34,29.92,10,3,18,0.00
2013-3-18,36.8,26.7,14.3,23.3,3.5,-7.0,81,40,20,30.47,30.09,8,3,17,0.00
2013-3-19,35.2,30.5,26.4,31.1,26.2,21.3,87,84,81,30.09,29.70,6,1,11,0.00
2013-3-20,38.3,28.7,18.5,21.6,17.1,11.0,82,63,43,29.82,29.75,10,1,17,0.00
2013-3-21,37.5,27.3,14.0,14.7,8.3,1.1,72,47,24,29.82,29.64,8,2,17,0.00
2013-3-22,35.7,28.3,19.5,23.2,15.6,5.6,76,59,44,29.83,29.68,12,2,23,0.07
2013-3-23,40.2,34.4,30.0,24.1,19.9,15.4,76,56,42,29.90,29.77,13,4,26,0.02
2013-3-24,45.3,37.1,31.1,22.8,19.7,-15.0,62,50,12,29.91,29.75,9,3,12,0.00
2013-3-25,44.4,36.5,29.3,25.9,21.8,19.3,66,56,43,29.78,29.52,11,4,19,0.00
2013-3-26,47.4,40.6,35.2,27.0,19.5,9.7,65,45,23,29.85,29.60,10,3,15,0.00
2013-3-27,51.4,41.0,35.4,29.0,24.8,15.0,65,53,38,29.95,29.82,13,4,23,0.00
2013-3-28,48.3,41.2,35.6,33.8,30.2,26.5,78,65,50,30.10,29.94,8,3,15,0.00
2013-3-29,50.5,43.1,37.4,33.1,29.6,27.7,69,59,46,30.13,30.05,11,4,27,0.00
2013-3-30,55.9,44.9,37.4,29.1,23.0,14.9,67,45,21,30.13,30.04,10,3,19,0.00
2013-3-31,55.9,41.5,26.2,37.7,24.0,15.5,84,53,24,30.12,29.71,16,4,27,0.11